sensor_id;sensor_type;location;lat;lon;timestamp;P1;durP1;ratioP1;P2;durP2;ratioP2
32790;SDS011;19143;59.322;14.502;2024-03-08T00:00:53;19.03;;;6.17;;
32790;SDS011;19143;59.322;14.502;2024-03-08T00:03:19;19.97;;;6.47;;
32790;SDS011;19143;59.322;14.502;2024-03-08T00:05:46;12.37;;;6.27;;
32790;SDS011;19143;59.322;14.502;2024-03-08T00:08:12;20.67;;;7.20;;
32790;SDS011;19143;59.322;14.502;2024-03-08T00:10:39;10.87;;;5.50;;
32790;SDS011;19143;59.322;14.502;2024-03-08T00:13:05;16.53;;;7.27;;
32790;SDS011;19143;59.322;14.502;2024-03-08T00:15:32;11.93;;;5.87;;
32790;SDS011;19143;59.322;14.502;2024-03-08T00:17:59;14.30;;;6.40;;
32790;SDS011;19143;59.322;14.502;2024-03-08T00:20:26;9.93;;;5.70;;
32790;SDS011;19143;59.322;14.502;2024-03-08T00:22:53;20.47;;;6.33;;
32790;SDS011;19143;59.322;14.502;2024-03-08T00:25:19;10.60;;;5.83;;
32790;SDS011;19143;59.322;14.502;2024-03-08T00:27:45;14.83;;;6.07;;
32790;SDS011;19143;59.322;14.502;2024-03-08T00:30:14;14.03;;;6.17;;
32790;SDS011;19143;59.322;14.502;2024-03-08T00:32:41;11.07;;;5.73;;
32790;SDS011;19143;59.322;14.502;2024-03-08T00:35:08;10.13;;;5.50;;
32790;SDS011;19143;59.322;14.502;2024-03-08T00:37:36;12.60;;;5.10;;
32790;SDS011;19143;59.322;14.502;2024-03-08T00:40:03;12.07;;;5.43;;
32790;SDS011;19143;59.322;14.502;2024-03-08T00:42:29;13.20;;;5.67;;
32790;SDS011;19143;59.322;14.502;2024-03-08T00:44:56;10.17;;;5.10;;
32790;SDS011;19143;59.322;14.502;2024-03-08T00:47:23;15.00;;;5.23;;
32790;SDS011;19143;59.322;14.502;2024-03-08T00:49:49;9.97;;;5.53;;
32790;SDS011;19143;59.322;14.502;2024-03-08T00:52:18;12.30;;;5.23;;
32790;SDS011;19143;59.322;14.502;2024-03-08T00:54:44;9.00;;;4.80;;
32790;SDS011;19143;59.322;14.502;2024-03-08T00:57:11;10.33;;;5.20;;
32790;SDS011;19143;59.322;14.502;2024-03-08T00:59:37;11.63;;;5.33;;
32790;SDS011;19143;59.322;14.502;2024-03-08T01:02:04;13.50;;;5.30;;
32790;SDS011;19143;59.322;14.502;2024-03-08T01:04:31;9.67;;;5.10;;
32790;SDS011;19143;59.322;14.502;2024-03-08T01:06:58;11.73;;;4.97;;
32790;SDS011;19143;59.322;14.502;2024-03-08T01:09:26;10.97;;;5.50;;
32790;SDS011;19143;59.322;14.502;2024-03-08T01:11:53;8.27;;;5.03;;
32790;SDS011;19143;59.322;14.502;2024-03-08T01:14:20;15.63;;;5.00;;
32790;SDS011;19143;59.322;14.502;2024-03-08T01:16:47;10.00;;;5.03;;
32790;SDS011;19143;59.322;14.502;2024-03-08T01:19:14;9.67;;;4.70;;
32790;SDS011;19143;59.322;14.502;2024-03-08T01:21:40;9.30;;;5.07;;
32790;SDS011;19143;59.322;14.502;2024-03-08T01:24:07;6.33;;;4.17;;
32790;SDS011;19143;59.322;14.502;2024-03-08T01:26:35;9.50;;;4.80;;
32790;SDS011;19143;59.322;14.502;2024-03-08T01:29:01;7.07;;;4.40;;
32790;SDS011;19143;59.322;14.502;2024-03-08T01:31:28;6.17;;;4.50;;
32790;SDS011;19143;59.322;14.502;2024-03-08T01:33:55;7.00;;;4.00;;
32790;SDS011;19143;59.322;14.502;2024-03-08T01:36:21;8.70;;;3.87;;
32790;SDS011;19143;59.322;14.502;2024-03-08T01:38:48;7.13;;;4.07;;
32790;SDS011;19143;59.322;14.502;2024-03-08T01:41:15;9.70;;;4.03;;
32790;SDS011;19143;59.322;14.502;2024-03-08T01:43:44;6.90;;;4.20;;
32790;SDS011;19143;59.322;14.502;2024-03-08T01:46:11;5.30;;;4.30;;
32790;SDS011;19143;59.322;14.502;2024-03-08T01:48:38;6.00;;;4.00;;
32790;SDS011;19143;59.322;14.502;2024-03-08T01:51:06;7.47;;;4.20;;
32790;SDS011;19143;59.322;14.502;2024-03-08T01:53:32;14.07;;;4.17;;
32790;SDS011;19143;59.322;14.502;2024-03-08T01:56:01;8.43;;;4.20;;
32790;SDS011;19143;59.322;14.502;2024-03-08T01:58:28;9.00;;;4.30;;
32790;SDS011;19143;59.322;14.502;2024-03-08T02:00:57;12.37;;;4.10;;
32790;SDS011;19143;59.322;14.502;2024-03-08T02:03:24;18.50;;;4.83;;
32790;SDS011;19143;59.322;14.502;2024-03-08T02:05:50;19.50;;;4.07;;
32790;SDS011;19143;59.322;14.502;2024-03-08T02:08:17;9.10;;;4.83;;
32790;SDS011;19143;59.322;14.502;2024-03-08T02:10:47;8.53;;;4.30;;
32790;SDS011;19143;59.322;14.502;2024-03-08T02:13:14;4.53;;;3.63;;
32790;SDS011;19143;59.322;14.502;2024-03-08T02:15:49;6.53;;;3.80;;
32790;SDS011;19143;59.322;14.502;2024-03-08T02:18:17;6.93;;;4.17;;
32790;SDS011;19143;59.322;14.502;2024-03-08T02:20:45;7.63;;;4.43;;
32790;SDS011;19143;59.322;14.502;2024-03-08T02:23:12;7.70;;;3.70;;
32790;SDS011;19143;59.322;14.502;2024-03-08T02:25:39;12.47;;;4.03;;
32790;SDS011;19143;59.322;14.502;2024-03-08T02:28:05;8.97;;;3.80;;
32790;SDS011;19143;59.322;14.502;2024-03-08T02:30:34;6.43;;;3.57;;
32790;SDS011;19143;59.322;14.502;2024-03-08T02:33:01;14.80;;;4.17;;
32790;SDS011;19143;59.322;14.502;2024-03-08T02:35:27;4.87;;;3.63;;
32790;SDS011;19143;59.322;14.502;2024-03-08T02:37:55;5.23;;;3.67;;
32790;SDS011;19143;59.322;14.502;2024-03-08T02:40:21;7.90;;;3.57;;
32790;SDS011;19143;59.322;14.502;2024-03-08T02:42:48;7.13;;;3.17;;
32790;SDS011;19143;59.322;14.502;2024-03-08T02:45:14;5.90;;;3.83;;
32790;SDS011;19143;59.322;14.502;2024-03-08T02:47:41;8.97;;;4.10;;
32790;SDS011;19143;59.322;14.502;2024-03-08T02:50:07;8.53;;;4.53;;
32790;SDS011;19143;59.322;14.502;2024-03-08T02:52:34;7.17;;;4.00;;
32790;SDS011;19143;59.322;14.502;2024-03-08T02:55:02;7.63;;;4.63;;
32790;SDS011;19143;59.322;14.502;2024-03-08T02:57:31;5.07;;;3.50;;
32790;SDS011;19143;59.322;14.502;2024-03-08T02:59:57;9.30;;;4.53;;
32790;SDS011;19143;59.322;14.502;2024-03-08T03:02:24;6.47;;;3.60;;
32790;SDS011;19143;59.322;14.502;2024-03-08T03:04:51;6.50;;;3.80;;
32790;SDS011;19143;59.322;14.502;2024-03-08T03:07:18;7.60;;;4.20;;
32790;SDS011;19143;59.322;14.502;2024-03-08T03:09:45;14.30;;;3.60;;
32790;SDS011;19143;59.322;14.502;2024-03-08T03:12:13;6.60;;;3.03;;
32790;SDS011;19143;59.322;14.502;2024-03-08T03:14:39;3.80;;;3.13;;
32790;SDS011;19143;59.322;14.502;2024-03-08T03:17:06;5.27;;;3.27;;
32790;SDS011;19143;59.322;14.502;2024-03-08T03:19:32;4.07;;;2.90;;
32790;SDS011;19143;59.322;14.502;2024-03-08T03:22:01;8.43;;;3.30;;
32790;SDS011;19143;59.322;14.502;2024-03-08T03:24:28;3.23;;;2.83;;
32790;SDS011;19143;59.322;14.502;2024-03-08T03:26:54;4.60;;;3.07;;
32790;SDS011;19143;59.322;14.502;2024-03-08T03:29:22;4.93;;;2.87;;
32790;SDS011;19143;59.322;14.502;2024-03-08T03:31:48;5.50;;;3.07;;
32790;SDS011;19143;59.322;14.502;2024-03-08T03:34:15;3.57;;;3.00;;
32790;SDS011;19143;59.322;14.502;2024-03-08T03:36:41;3.00;;;2.70;;
32790;SDS011;19143;59.322;14.502;2024-03-08T03:39:10;6.03;;;2.83;;
32790;SDS011;19143;59.322;14.502;2024-03-08T03:41:40;4.33;;;2.83;;
32790;SDS011;19143;59.322;14.502;2024-03-08T03:44:07;7.50;;;2.63;;
32790;SDS011;19143;59.322;14.502;2024-03-08T03:46:36;3.00;;;2.47;;
32790;SDS011;19143;59.322;14.502;2024-03-08T03:49:02;4.20;;;3.07;;
32790;SDS011;19143;59.322;14.502;2024-03-08T03:51:29;4.40;;;3.30;;
32790;SDS011;19143;59.322;14.502;2024-03-08T03:53:56;4.93;;;2.97;;
32790;SDS011;19143;59.322;14.502;2024-03-08T03:56:24;2.20;;;2.10;;
32790;SDS011;19143;59.322;14.502;2024-03-08T03:58:51;4.37;;;2.47;;
32790;SDS011;19143;59.322;14.502;2024-03-08T04:01:17;6.40;;;3.30;;
32790;SDS011;19143;59.322;14.502;2024-03-08T04:03:45;7.43;;;3.57;;
32790;SDS011;19143;59.322;14.502;2024-03-08T04:06:12;2.93;;;2.70;;
32790;SDS011;19143;59.322;14.502;2024-03-08T04:08:39;5.20;;;3.10;;
32790;SDS011;19143;59.322;14.502;2024-03-08T04:11:06;3.50;;;2.77;;
32790;SDS011;19143;59.322;14.502;2024-03-08T04:13:33;4.77;;;2.37;;
32790;SDS011;19143;59.322;14.502;2024-03-08T04:16:01;4.60;;;2.90;;
32790;SDS011;19143;59.322;14.502;2024-03-08T04:18:27;5.47;;;2.60;;
32790;SDS011;19143;59.322;14.502;2024-03-08T04:20:55;3.67;;;2.63;;
32790;SDS011;19143;59.322;14.502;2024-03-08T04:23:22;3.87;;;2.97;;
32790;SDS011;19143;59.322;14.502;2024-03-08T04:25:48;16.97;;;3.77;;
32790;SDS011;19143;59.322;14.502;2024-03-08T04:28:14;6.07;;;3.43;;
32790;SDS011;19143;59.322;14.502;2024-03-08T04:30:42;5.50;;;2.73;;
32790;SDS011;19143;59.322;14.502;2024-03-08T04:33:08;3.20;;;2.50;;
32790;SDS011;19143;59.322;14.502;2024-03-08T04:35:35;6.93;;;3.13;;
32790;SDS011;19143;59.322;14.502;2024-03-08T04:38:03;3.83;;;2.80;;
32790;SDS011;19143;59.322;14.502;2024-03-08T04:40:30;5.43;;;3.10;;
32790;SDS011;19143;59.322;14.502;2024-03-08T04:42:57;4.60;;;3.00;;
32790;SDS011;19143;59.322;14.502;2024-03-08T04:45:24;6.17;;;3.03;;
32790;SDS011;19143;59.322;14.502;2024-03-08T04:47:51;5.07;;;3.67;;
32790;SDS011;19143;59.322;14.502;2024-03-08T04:50:17;6.17;;;3.00;;
32790;SDS011;19143;59.322;14.502;2024-03-08T04:52:44;7.60;;;4.17;;
32790;SDS011;19143;59.322;14.502;2024-03-08T04:55:11;4.90;;;3.07;;
32790;SDS011;19143;59.322;14.502;2024-03-08T04:57:38;9.00;;;3.50;;
32790;SDS011;19143;59.322;14.502;2024-03-08T05:00:05;6.10;;;3.53;;
32790;SDS011;19143;59.322;14.502;2024-03-08T05:02:36;4.57;;;3.40;;
32790;SDS011;19143;59.322;14.502;2024-03-08T05:05:04;4.10;;;2.70;;
32790;SDS011;19143;59.322;14.502;2024-03-08T05:07:31;8.90;;;4.13;;
32790;SDS011;19143;59.322;14.502;2024-03-08T05:09:57;12.30;;;3.57;;
32790;SDS011;19143;59.322;14.502;2024-03-08T05:12:25;4.87;;;3.30;;
32790;SDS011;19143;59.322;14.502;2024-03-08T05:14:52;7.13;;;3.07;;
32790;SDS011;19143;59.322;14.502;2024-03-08T05:17:18;8.97;;;3.53;;
32790;SDS011;19143;59.322;14.502;2024-03-08T05:19:45;11.50;;;3.53;;
32790;SDS011;19143;59.322;14.502;2024-03-08T05:22:11;4.60;;;3.40;;
32790;SDS011;19143;59.322;14.502;2024-03-08T05:24:38;12.47;;;5.23;;
32790;SDS011;19143;59.322;14.502;2024-03-08T05:27:05;16.43;;;4.20;;
32790;SDS011;19143;59.322;14.502;2024-03-08T05:29:32;7.37;;;4.03;;
32790;SDS011;19143;59.322;14.502;2024-03-08T05:31:59;15.07;;;4.23;;
32790;SDS011;19143;59.322;14.502;2024-03-08T05:34:26;6.50;;;4.10;;
32790;SDS011;19143;59.322;14.502;2024-03-08T05:36:53;11.07;;;3.97;;
32790;SDS011;19143;59.322;14.502;2024-03-08T05:39:20;5.97;;;3.90;;
32790;SDS011;19143;59.322;14.502;2024-03-08T05:41:46;9.17;;;3.77;;
32790;SDS011;19143;59.322;14.502;2024-03-08T05:44:13;13.60;;;4.60;;
32790;SDS011;19143;59.322;14.502;2024-03-08T05:46:41;18.30;;;4.53;;
32790;SDS011;19143;59.322;14.502;2024-03-08T05:49:08;20.13;;;4.50;;
32790;SDS011;19143;59.322;14.502;2024-03-08T05:51:36;3.77;;;3.23;;
32790;SDS011;19143;59.322;14.502;2024-03-08T05:54:02;6.57;;;4.10;;
32790;SDS011;19143;59.322;14.502;2024-03-08T05:56:30;12.10;;;4.17;;
32790;SDS011;19143;59.322;14.502;2024-03-08T05:58:57;7.53;;;4.20;;
32790;SDS011;19143;59.322;14.502;2024-03-08T06:01:24;4.57;;;3.47;;
32790;SDS011;19143;59.322;14.502;2024-03-08T06:03:52;5.77;;;3.97;;
32790;SDS011;19143;59.322;14.502;2024-03-08T06:06:21;15.60;;;4.60;;
32790;SDS011;19143;59.322;14.502;2024-03-08T06:08:48;15.63;;;3.83;;
32790;SDS011;19143;59.322;14.502;2024-03-08T06:11:15;12.07;;;3.93;;
32790;SDS011;19143;59.322;14.502;2024-03-08T06:13:42;5.57;;;3.57;;
32790;SDS011;19143;59.322;14.502;2024-03-08T06:16:08;16.47;;;4.33;;
32790;SDS011;19143;59.322;14.502;2024-03-08T06:18:35;18.10;;;4.07;;
32790;SDS011;19143;59.322;14.502;2024-03-08T06:21:04;21.17;;;4.57;;
32790;SDS011;19143;59.322;14.502;2024-03-08T06:23:31;8.73;;;4.50;;
32790;SDS011;19143;59.322;14.502;2024-03-08T06:25:57;12.03;;;5.40;;
32790;SDS011;19143;59.322;14.502;2024-03-08T06:28:24;16.43;;;4.77;;
32790;SDS011;19143;59.322;14.502;2024-03-08T06:30:50;7.97;;;3.67;;
32790;SDS011;19143;59.322;14.502;2024-03-08T06:33:18;20.70;;;4.07;;
32790;SDS011;19143;59.322;14.502;2024-03-08T06:35:44;6.13;;;3.87;;
32790;SDS011;19143;59.322;14.502;2024-03-08T06:38:12;34.07;;;5.23;;
32790;SDS011;19143;59.322;14.502;2024-03-08T06:40:40;21.83;;;4.47;;
32790;SDS011;19143;59.322;14.502;2024-03-08T06:43:06;50.07;;;6.00;;
32790;SDS011;19143;59.322;14.502;2024-03-08T06:45:33;19.57;;;5.27;;
32790;SDS011;19143;59.322;14.502;2024-03-08T06:48:02;28.40;;;5.03;;
32790;SDS011;19143;59.322;14.502;2024-03-08T06:50:28;20.17;;;5.53;;
32790;SDS011;19143;59.322;14.502;2024-03-08T06:52:55;20.33;;;6.57;;
32790;SDS011;19143;59.322;14.502;2024-03-08T06:55:23;31.00;;;4.97;;
32790;SDS011;19143;59.322;14.502;2024-03-08T06:57:50;31.50;;;4.87;;
32790;SDS011;19143;59.322;14.502;2024-03-08T07:00:17;39.70;;;5.50;;
32790;SDS011;19143;59.322;14.502;2024-03-08T07:02:43;16.53;;;4.33;;
32790;SDS011;19143;59.322;14.502;2024-03-08T07:05:10;12.63;;;4.07;;
32790;SDS011;19143;59.322;14.502;2024-03-08T07:07:37;20.23;;;4.50;;
32790;SDS011;19143;59.322;14.502;2024-03-08T07:10:04;17.53;;;3.53;;
32790;SDS011;19143;59.322;14.502;2024-03-08T07:12:32;12.83;;;3.50;;
32790;SDS011;19143;59.322;14.502;2024-03-08T07:14:58;12.17;;;3.90;;
32790;SDS011;19143;59.322;14.502;2024-03-08T07:17:24;8.53;;;4.20;;
32790;SDS011;19143;59.322;14.502;2024-03-08T07:19:51;15.80;;;4.90;;
32790;SDS011;19143;59.322;14.502;2024-03-08T07:22:19;15.90;;;4.83;;
32790;SDS011;19143;59.322;14.502;2024-03-08T07:24:45;46.47;;;6.63;;
32790;SDS011;19143;59.322;14.502;2024-03-08T07:27:29;21.80;;;6.03;;
32790;SDS011;19143;59.322;14.502;2024-03-08T07:29:57;33.17;;;5.70;;
32790;SDS011;19143;59.322;14.502;2024-03-08T07:32:25;25.17;;;5.60;;
32790;SDS011;19143;59.322;14.502;2024-03-08T07:34:53;16.57;;;5.47;;
32790;SDS011;19143;59.322;14.502;2024-03-08T07:37:20;13.90;;;5.50;;
32790;SDS011;19143;59.322;14.502;2024-03-08T07:39:47;16.87;;;5.40;;
32790;SDS011;19143;59.322;14.502;2024-03-08T07:42:13;20.10;;;5.50;;
32790;SDS011;19143;59.322;14.502;2024-03-08T07:44:40;23.00;;;4.50;;
32790;SDS011;19143;59.322;14.502;2024-03-08T07:47:07;14.70;;;5.17;;
32790;SDS011;19143;59.322;14.502;2024-03-08T07:49:34;31.30;;;4.97;;
32790;SDS011;19143;59.322;14.502;2024-03-08T07:52:02;20.23;;;4.30;;
32790;SDS011;19143;59.322;14.502;2024-03-08T07:54:29;33.37;;;4.97;;
32790;SDS011;19143;59.322;14.502;2024-03-08T07:56:56;16.07;;;4.17;;
32790;SDS011;19143;59.322;14.502;2024-03-08T07:59:22;15.40;;;4.50;;
32790;SDS011;19143;59.322;14.502;2024-03-08T08:01:48;10.90;;;3.70;;
32790;SDS011;19143;59.322;14.502;2024-03-08T08:04:16;11.83;;;3.57;;
32790;SDS011;19143;59.322;14.502;2024-03-08T08:06:43;26.67;;;4.00;;
32790;SDS011;19143;59.322;14.502;2024-03-08T08:09:10;7.43;;;3.73;;
32790;SDS011;19143;59.322;14.502;2024-03-08T08:11:40;8.40;;;3.10;;
32790;SDS011;19143;59.322;14.502;2024-03-08T08:14:08;21.83;;;3.90;;
32790;SDS011;19143;59.322;14.502;2024-03-08T08:16:35;12.63;;;4.53;;
32790;SDS011;19143;59.322;14.502;2024-03-08T08:19:02;11.93;;;3.40;;
32790;SDS011;19143;59.322;14.502;2024-03-08T08:21:34;24.27;;;3.77;;
32790;SDS011;19143;59.322;14.502;2024-03-08T08:24:01;8.70;;;4.17;;
32790;SDS011;19143;59.322;14.502;2024-03-08T08:26:28;16.67;;;4.17;;
32790;SDS011;19143;59.322;14.502;2024-03-08T08:28:55;12.03;;;4.27;;
32790;SDS011;19143;59.322;14.502;2024-03-08T08:31:21;8.37;;;4.23;;
32790;SDS011;19143;59.322;14.502;2024-03-08T08:33:47;11.67;;;4.07;;
32790;SDS011;19143;59.322;14.502;2024-03-08T08:36:14;16.87;;;4.27;;
32790;SDS011;19143;59.322;14.502;2024-03-08T08:38:42;13.90;;;4.93;;
32790;SDS011;19143;59.322;14.502;2024-03-08T08:41:09;15.13;;;4.40;;
32790;SDS011;19143;59.322;14.502;2024-03-08T08:43:36;14.60;;;4.57;;
32790;SDS011;19143;59.322;14.502;2024-03-08T08:46:04;25.53;;;4.90;;
32790;SDS011;19143;59.322;14.502;2024-03-08T08:48:30;13.13;;;4.43;;
32790;SDS011;19143;59.322;14.502;2024-03-08T08:50:56;9.67;;;3.60;;
32790;SDS011;19143;59.322;14.502;2024-03-08T08:53:23;6.60;;;3.33;;
32790;SDS011;19143;59.322;14.502;2024-03-08T08:55:51;16.67;;;3.50;;
32790;SDS011;19143;59.322;14.502;2024-03-08T08:58:18;17.30;;;3.83;;
32790;SDS011;19143;59.322;14.502;2024-03-08T09:00:44;14.17;;;3.50;;
32790;SDS011;19143;59.322;14.502;2024-03-08T09:03:11;8.53;;;2.80;;
32790;SDS011;19143;59.322;14.502;2024-03-08T09:05:38;28.27;;;3.00;;
32790;SDS011;19143;59.322;14.502;2024-03-08T09:08:05;2.40;;;2.20;;
32790;SDS011;19143;59.322;14.502;2024-03-08T09:10:31;7.60;;;2.50;;
32790;SDS011;19143;59.322;14.502;2024-03-08T09:13:00;28.13;;;2.70;;
32790;SDS011;19143;59.322;14.502;2024-03-08T09:15:29;2.40;;;2.20;;
32790;SDS011;19143;59.322;14.502;2024-03-08T09:17:55;5.10;;;2.23;;
32790;SDS011;19143;59.322;14.502;2024-03-08T09:20:22;3.17;;;2.20;;
32790;SDS011;19143;59.322;14.502;2024-03-08T09:22:50;15.30;;;2.17;;
32790;SDS011;19143;59.322;14.502;2024-03-08T09:25:16;4.77;;;2.00;;
32790;SDS011;19143;59.322;14.502;2024-03-08T09:27:43;4.97;;;2.20;;
32790;SDS011;19143;59.322;14.502;2024-03-08T09:30:13;2.93;;;2.20;;
32790;SDS011;19143;59.322;14.502;2024-03-08T09:32:40;12.60;;;2.50;;
32790;SDS011;19143;59.322;14.502;2024-03-08T09:35:08;11.07;;;2.30;;
32790;SDS011;19143;59.322;14.502;2024-03-08T09:37:36;3.27;;;2.20;;
32790;SDS011;19143;59.322;14.502;2024-03-08T09:40:03;5.90;;;2.27;;
32790;SDS011;19143;59.322;14.502;2024-03-08T09:42:34;5.47;;;2.30;;
32790;SDS011;19143;59.322;14.502;2024-03-08T09:45:02;9.40;;;2.20;;
32790;SDS011;19143;59.322;14.502;2024-03-08T09:47:31;9.20;;;2.97;;
32790;SDS011;19143;59.322;14.502;2024-03-08T09:49:59;4.80;;;2.57;;
32790;SDS011;19143;59.322;14.502;2024-03-08T09:52:26;29.33;;;4.13;;
32790;SDS011;19143;59.322;14.502;2024-03-08T09:54:52;11.43;;;2.50;;
32790;SDS011;19143;59.322;14.502;2024-03-08T09:57:18;10.70;;;2.50;;
32790;SDS011;19143;59.322;14.502;2024-03-08T09:59:45;8.23;;;2.93;;
32790;SDS011;19143;59.322;14.502;2024-03-08T10:02:16;10.90;;;2.60;;
32790;SDS011;19143;59.322;14.502;2024-03-08T10:04:45;5.47;;;2.40;;
32790;SDS011;19143;59.322;14.502;2024-03-08T10:07:12;9.37;;;3.10;;
32790;SDS011;19143;59.322;14.502;2024-03-08T10:09:39;8.83;;;2.73;;
32790;SDS011;19143;59.322;14.502;2024-03-08T10:12:07;3.07;;;2.50;;
32790;SDS011;19143;59.322;14.502;2024-03-08T10:14:35;8.13;;;1.90;;
32790;SDS011;19143;59.322;14.502;2024-03-08T10:17:04;22.23;;;3.17;;
32790;SDS011;19143;59.322;14.502;2024-03-08T10:19:31;5.27;;;2.37;;
32790;SDS011;19143;59.322;14.502;2024-03-08T10:21:59;6.87;;;3.10;;
32790;SDS011;19143;59.322;14.502;2024-03-08T10:24:25;8.10;;;2.57;;
32790;SDS011;19143;59.322;14.502;2024-03-08T10:26:52;5.17;;;2.37;;
32790;SDS011;19143;59.322;14.502;2024-03-08T10:29:19;6.60;;;2.07;;
32790;SDS011;19143;59.322;14.502;2024-03-08T10:31:46;15.27;;;2.63;;
32790;SDS011;19143;59.322;14.502;2024-03-08T10:34:12;6.97;;;2.00;;
32790;SDS011;19143;59.322;14.502;2024-03-08T10:36:39;3.30;;;2.20;;
32790;SDS011;19143;59.322;14.502;2024-03-08T10:39:16;6.80;;;2.00;;
32790;SDS011;19143;59.322;14.502;2024-03-08T10:41:45;10.90;;;1.93;;
32790;SDS011;19143;59.322;14.502;2024-03-08T10:44:17;5.53;;;1.90;;
32790;SDS011;19143;59.322;14.502;2024-03-08T10:46:54;10.70;;;2.87;;
32790;SDS011;19143;59.322;14.502;2024-03-08T10:49:25;6.37;;;2.50;;
32790;SDS011;19143;59.322;14.502;2024-03-08T10:51:54;17.40;;;3.03;;
32790;SDS011;19143;59.322;14.502;2024-03-08T10:54:22;6.30;;;1.90;;
32790;SDS011;19143;59.322;14.502;2024-03-08T10:56:49;19.30;;;2.40;;
32790;SDS011;19143;59.322;14.502;2024-03-08T10:59:16;11.90;;;2.50;;
32790;SDS011;19143;59.322;14.502;2024-03-08T11:01:44;6.97;;;2.93;;
32790;SDS011;19143;59.322;14.502;2024-03-08T11:04:10;6.53;;;2.17;;
32790;SDS011;19143;59.322;14.502;2024-03-08T11:06:43;8.93;;;2.30;;
32790;SDS011;19143;59.322;14.502;2024-03-08T11:15:00;7.50;;;2.30;;
32790;SDS011;19143;59.322;14.502;2024-03-08T11:17:44;3.33;;;2.40;;
32790;SDS011;19143;59.322;14.502;2024-03-08T11:20:11;2.57;;;2.37;;
32790;SDS011;19143;59.322;14.502;2024-03-08T11:22:41;20.13;;;3.27;;
32790;SDS011;19143;59.322;14.502;2024-03-08T11:25:15;5.90;;;2.60;;
32790;SDS011;19143;59.322;14.502;2024-03-08T11:28:06;7.07;;;2.50;;
32790;SDS011;19143;59.322;14.502;2024-03-08T11:30:34;12.57;;;2.40;;
32790;SDS011;19143;59.322;14.502;2024-03-08T11:33:00;8.00;;;2.00;;
32790;SDS011;19143;59.322;14.502;2024-03-08T11:35:28;9.77;;;2.37;;
32790;SDS011;19143;59.322;14.502;2024-03-08T11:37:54;10.00;;;2.47;;
32790;SDS011;19143;59.322;14.502;2024-03-08T11:40:25;4.00;;;2.20;;
32790;SDS011;19143;59.322;14.502;2024-03-08T11:42:52;4.53;;;2.03;;
32790;SDS011;19143;59.322;14.502;2024-03-08T11:45:20;8.83;;;2.67;;
32790;SDS011;19143;59.322;14.502;2024-03-08T11:47:48;27.00;;;3.13;;
32790;SDS011;19143;59.322;14.502;2024-03-08T11:50:15;9.37;;;2.87;;
32790;SDS011;19143;59.322;14.502;2024-03-08T11:52:43;9.20;;;2.77;;
32790;SDS011;19143;59.322;14.502;2024-03-08T11:55:11;19.50;;;3.43;;
32790;SDS011;19143;59.322;14.502;2024-03-08T11:57:37;9.27;;;2.53;;
32790;SDS011;19143;59.322;14.502;2024-03-08T12:00:04;10.03;;;2.50;;
32790;SDS011;19143;59.322;14.502;2024-03-08T12:02:32;9.33;;;2.77;;
32790;SDS011;19143;59.322;14.502;2024-03-08T12:05:01;8.93;;;2.50;;
32790;SDS011;19143;59.322;14.502;2024-03-08T12:07:28;2.93;;;1.93;;
32790;SDS011;19143;59.322;14.502;2024-03-08T12:12:42;13.23;;;2.30;;
32790;SDS011;19143;59.322;14.502;2024-03-08T12:15:09;10.43;;;2.27;;
32790;SDS011;19143;59.322;14.502;2024-03-08T12:17:36;3.13;;;2.17;;
32790;SDS011;19143;59.322;14.502;2024-03-08T12:20:12;10.13;;;2.47;;
32790;SDS011;19143;59.322;14.502;2024-03-08T12:22:40;7.60;;;2.63;;
32790;SDS011;19143;59.322;14.502;2024-03-08T12:25:07;6.73;;;2.10;;
32790;SDS011;19143;59.322;14.502;2024-03-08T12:27:35;10.27;;;2.27;;
32790;SDS011;19143;59.322;14.502;2024-03-08T12:30:14;4.17;;;2.03;;
32790;SDS011;19143;59.322;14.502;2024-03-08T12:32:46;7.17;;;2.30;;
32790;SDS011;19143;59.322;14.502;2024-03-08T12:35:14;5.00;;;2.17;;
32790;SDS011;19143;59.322;14.502;2024-03-08T12:37:41;6.43;;;2.13;;
32790;SDS011;19143;59.322;14.502;2024-03-08T12:40:09;13.13;;;2.50;;
32790;SDS011;19143;59.322;14.502;2024-03-08T12:42:35;5.23;;;1.97;;
32790;SDS011;19143;59.322;14.502;2024-03-08T12:45:02;3.67;;;1.90;;
32790;SDS011;19143;59.322;14.502;2024-03-08T12:47:31;11.63;;;3.10;;
32790;SDS011;19143;59.322;14.502;2024-03-08T12:49:58;16.23;;;2.00;;
32790;SDS011;19143;59.322;14.502;2024-03-08T12:52:26;5.73;;;2.17;;
32790;SDS011;19143;59.322;14.502;2024-03-08T12:54:55;5.03;;;2.63;;
32790;SDS011;19143;59.322;14.502;2024-03-08T12:57:21;8.20;;;2.20;;
32790;SDS011;19143;59.322;14.502;2024-03-08T12:59:52;3.70;;;1.80;;
32790;SDS011;19143;59.322;14.502;2024-03-08T13:02:19;2.97;;;1.93;;
32790;SDS011;19143;59.322;14.502;2024-03-08T13:04:46;2.73;;;1.87;;
32790;SDS011;19143;59.322;14.502;2024-03-08T13:07:20;5.77;;;2.17;;
32790;SDS011;19143;59.322;14.502;2024-03-08T13:09:50;4.50;;;1.83;;
32790;SDS011;19143;59.322;14.502;2024-03-08T13:12:16;4.13;;;2.03;;
32790;SDS011;19143;59.322;14.502;2024-03-08T13:14:42;6.27;;;2.20;;
32790;SDS011;19143;59.322;14.502;2024-03-08T13:17:09;8.60;;;2.20;;
32790;SDS011;19143;59.322;14.502;2024-03-08T13:19:37;5.87;;;1.97;;
32790;SDS011;19143;59.322;14.502;2024-03-08T13:22:04;3.53;;;1.83;;
32790;SDS011;19143;59.322;14.502;2024-03-08T13:24:30;9.40;;;1.83;;
32790;SDS011;19143;59.322;14.502;2024-03-08T13:26:58;7.83;;;2.20;;
32790;SDS011;19143;59.322;14.502;2024-03-08T13:29:25;1.93;;;1.83;;
32790;SDS011;19143;59.322;14.502;2024-03-08T13:31:51;8.43;;;2.10;;
32790;SDS011;19143;59.322;14.502;2024-03-08T13:34:21;3.27;;;1.80;;
32790;SDS011;19143;59.322;14.502;2024-03-08T13:36:53;8.47;;;1.83;;
32790;SDS011;19143;59.322;14.502;2024-03-08T13:39:24;8.53;;;1.50;;
32790;SDS011;19143;59.322;14.502;2024-03-08T13:41:51;4.93;;;2.03;;
32790;SDS011;19143;59.322;14.502;2024-03-08T13:44:19;10.23;;;2.00;;
32790;SDS011;19143;59.322;14.502;2024-03-08T13:46:46;4.23;;;1.87;;
32790;SDS011;19143;59.322;14.502;2024-03-08T13:49:12;3.57;;;2.07;;
32790;SDS011;19143;59.322;14.502;2024-03-08T13:51:39;5.67;;;2.43;;
32790;SDS011;19143;59.322;14.502;2024-03-08T13:54:05;12.40;;;1.97;;
32790;SDS011;19143;59.322;14.502;2024-03-08T13:56:32;2.57;;;1.97;;
32790;SDS011;19143;59.322;14.502;2024-03-08T13:58:59;1.87;;;1.63;;
32790;SDS011;19143;59.322;14.502;2024-03-08T14:01:27;1.87;;;1.77;;
32790;SDS011;19143;59.322;14.502;2024-03-08T14:03:55;2.10;;;1.90;;
32790;SDS011;19143;59.322;14.502;2024-03-08T14:06:21;5.97;;;2.33;;
32790;SDS011;19143;59.322;14.502;2024-03-08T14:08:50;12.23;;;3.10;;
32790;SDS011;19143;59.322;14.502;2024-03-08T14:11:18;6.70;;;1.80;;
32790;SDS011;19143;59.322;14.502;2024-03-08T14:13:45;5.70;;;1.80;;
32790;SDS011;19143;59.322;14.502;2024-03-08T14:16:12;9.23;;;1.70;;
32790;SDS011;19143;59.322;14.502;2024-03-08T14:18:39;7.00;;;2.00;;
32790;SDS011;19143;59.322;14.502;2024-03-08T14:21:06;4.10;;;2.20;;
32790;SDS011;19143;59.322;14.502;2024-03-08T14:23:33;6.90;;;2.13;;
32790;SDS011;19143;59.322;14.502;2024-03-08T14:26:00;1.97;;;1.87;;
32790;SDS011;19143;59.322;14.502;2024-03-08T14:28:26;12.70;;;2.20;;
32790;SDS011;19143;59.322;14.502;2024-03-08T14:30:53;3.90;;;2.00;;
32790;SDS011;19143;59.322;14.502;2024-03-08T14:33:19;7.20;;;1.93;;
32790;SDS011;19143;59.322;14.502;2024-03-08T14:35:47;5.33;;;1.90;;
32790;SDS011;19143;59.322;14.502;2024-03-08T14:38:14;16.10;;;2.30;;